Arcadia, Wisconsin
Current Conditions -  °F | °C
As of 8:34 PM on Sunday 23 Nov 2014 (Local Time) from KONA Reporting Station
Drizzle Drizzle  
Wind Chill: 35°   Ceiling: 600
Heat Index: 43°   Visibility: 5mi
Dew Point: 41°   Wind: 15mph
Humidity: 93%   Direction: 330°NNW
Pressure: 29.28"   Gusts: 21mph
Location:  44.25°N, 91.5°W
Report Text: KONA 240234Z AUTO 33013G18KT 5SM -DZ OVC006 06/05 A2928 RMK AO2 P0002
Loading
Personal Weather Stations






























Interactive Weather Map New forecast layout! Learn more

10-Day Weather Forecast

Advertisements
Track Severe Weather on mobile